Greifswald — 3FEC8 — position and weather

sailwx.info

Track history (hours):
 
Tides and Currents Weather Stations Pressure Air Temp Water Temp Dewpoint Dewpoint Depression Visibility Wind Speed Wind Dir Waves Ship Positions

Greifswald

Last reported at 2015-Aug-31 15:16 UTC. Time now 2015-Aug-31 21:54 UTC.
Position N 43°23' E 036°05'.

Length 191 m; draft 6.5 m.

Type: Ship. MMSI: 370492000.

Date/timePositionNaut miles runAvg speedWind from/ knotsBaromVisibWave heightAir tempDewpointWater temp
2015-Aug-31 15:16N 43°23' E 036°05'2514.3
2015-Aug-31 13:31N 43°33' E 035°33'2914.2
2015-Aug-31 11:31N 43°44' E 034°56'1314.2
2015-Aug-31 10:33N 43°49' E 034°39'1414.2
2015-Aug-31 09:33N 43°54' E 034°21'1814.5
2015-Aug-31 08:20N 44°00' E 033°58'13614.0
2015-Aug-30 22:34N 45°37' E 031°42'1414.2
2015-Aug-30 21:34N 45°48' E 031°28'1414.5
2015-Aug-30 20:34N 45°59' E 031°15'1514.5
2015-Aug-30 19:33N 46°10' E 031°01'1413.9
2015-Aug-30 18:33N 46°18' E 030°45'56 2.7
2015-Aug-29 21:31N 45°41' E 031°46'1111.7
2015-Aug-29 20:33N 45°33' E 031°56'1211.6
2015-Aug-29 19:33N 45°23' E 032°06'1211.9
2015-Aug-29 18:33N 45°15' E 032°17'1312.0
2015-Aug-29 17:28N 45°05' E 032°30'13 9.2
2015-Aug-29 16:05N 44°55' E 032°42'5 8.8
2015-Aug-29 15:33N 44°52' E 032°46'9 9.0
2015-Aug-29 14:32N 44°45' E 032°55'9 9.2
2015-Aug-29 13:30N 44°38' E 033°04'5210.0
2015-Aug-29 08:18N 44°06' E 034°01'7 8.7
2015-Aug-29 07:30N 44°03' E 034°10'8 8.8
2015-Aug-29 06:33N 43°60' E 034°20'10 9.8
2015-Aug-29 05:33N 43°57' E 034°33'1110.8
2015-Aug-29 04:33N 43°50' E 034°45'1111.1
2015-Aug-29 03:33N 43°46' E 034°60'1111.0
2015-Aug-29 02:33N 43°42' E 035°14'1411.2
2015-Aug-29 01:20N 43°36' E 035°31'3410.7
2015-Aug-28 22:08N 43°23' E 036°14'610.3
2015-Aug-28 21:33N 43°21' E 036°22'9 9.5
2015-Aug-28 20:33N 43°17' E 036°34'9 9.3
2015-Aug-28 19:33N 43°13' E 036°45'14 9.5
2015-Aug-28 18:05N 43°08' E 037°03'5 9.9
2015-Aug-28 17:33N 43°06' E 037°10'  
2015-Aug-25 06:31N 45°57' E 031°17'1211.6
2015-Aug-25 05:30N 46°06' E 031°05'  
Track history (hours):
 
Tides and Currents Weather Stations Pressure Air Temp Water Temp Dewpoint Dewpoint Depression Visibility Wind Speed Wind Dir Waves Ship Positions

Greifswald

Last reported at 2015-Aug-31 15:16 UTC. Time now 2015-Aug-31 21:54 UTC.
Position N 43°23' E 036°05'.

Length 191 m; draft 6.5 m.

Type: Ship. MMSI: 370492000.

Date/timePositionNaut miles runAvg speedWind from/ knotsBaromVisibWave heightAir tempDewpointWater temp
2015-Aug-31 15:16N 43°23' E 036°05'2514.3
2015-Aug-31 13:31N 43°33' E 035°33'2914.2
2015-Aug-31 11:31N 43°44' E 034°56'1314.2
2015-Aug-31 10:33N 43°49' E 034°39'1414.2
2015-Aug-31 09:33N 43°54' E 034°21'1814.5
2015-Aug-31 08:20N 44°00' E 033°58'13614.0
2015-Aug-30 22:34N 45°37' E 031°42'1414.2
2015-Aug-30 21:34N 45°48' E 031°28'1414.5
2015-Aug-30 20:34N 45°59' E 031°15'1514.5
2015-Aug-30 19:33N 46°10' E 031°01'1413.9
2015-Aug-30 18:33N 46°18' E 030°45'56 2.7
2015-Aug-29 21:31N 45°41' E 031°46'1111.7
2015-Aug-29 20:33N 45°33' E 031°56'1211.6
2015-Aug-29 19:33N 45°23' E 032°06'1211.9
2015-Aug-29 18:33N 45°15' E 032°17'1312.0
2015-Aug-29 17:28N 45°05' E 032°30'13 9.2
2015-Aug-29 16:05N 44°55' E 032°42'5 8.8
2015-Aug-29 15:33N 44°52' E 032°46'9 9.0
2015-Aug-29 14:32N 44°45' E 032°55'9 9.2
2015-Aug-29 13:30N 44°38' E 033°04'5210.0
2015-Aug-29 08:18N 44°06' E 034°01'7 8.7
2015-Aug-29 07:30N 44°03' E 034°10'8 8.8
2015-Aug-29 06:33N 43°60' E 034°20'10 9.8
2015-Aug-29 05:33N 43°57' E 034°33'1110.8
2015-Aug-29 04:33N 43°50' E 034°45'1111.1
2015-Aug-29 03:33N 43°46' E 034°60'1111.0
2015-Aug-29 02:33N 43°42' E 035°14'1411.2
2015-Aug-29 01:20N 43°36' E 035°31'3410.7
2015-Aug-28 22:08N 43°23' E 036°14'610.3
2015-Aug-28 21:33N 43°21' E 036°22'9 9.5
2015-Aug-28 20:33N 43°17' E 036°34'9 9.3
2015-Aug-28 19:33N 43°13' E 036°45'14 9.5
2015-Aug-28 18:05N 43°08' E 037°03'5 9.9
2015-Aug-28 17:33N 43°06' E 037°10'  
2015-Aug-25 06:31N 45°57' E 031°17'1211.6
2015-Aug-25 05:30N 46°06' E 031°05'  

Dump ship's entire track history